• Join FlightAware (Why Join?)
  • Login
  • US Flag 
Gobble Gobble! 
10:35PM EST


 

Airport Tracker/Info


-or-


 

Live Flight TrackerFlight Track Log ✈ UPS2062 ✈ 17-Dec-2013 ✈ KSDF - KBDL

Flight Track Log - Related Links

Times and Time Zones

All times are in EST time to prevent confusion due to time zone crossing. See the UPS2062 flight status page for this flight to view local times or setup timezone preferences in your user account.

Time Position Orientation Groundspeed Altitude Reporting Facility
EST Latitude Longitude Course Direction KTS MPH feet Rate Location/Type
03:33PM 38.2567 -85.7939 358° North 224 258 5,100  Level Indianapolis Center
03:36PM 38.2641 -85.9660 349° North  Level FlightAware Approximate
03:37PM 38.3871 -85.9833 North  Level FlightAware Approximate
03:38PM 38.5058 -85.9871 358° North  Level FlightAware Approximate
03:39PM 38.6245 -85.9934 358° North  Level FlightAware Approximate
03:39PM 38.7262 -85.5673 358° North 421 484 22,700  Level FlightAware ADS-B (KCVG)
03:40PM 38.8467 -85.4529 36° Northeast 434 499 24,000 660 Climbing FlightAware ADS-B (KCVG)
03:42PM 38.9525 -85.3497 36° Northeast 430 495 24,300 960 Climbing Indianapolis Center
03:43PM 39.0478 -85.2592 36° Northeast 430 495 26,200 1,860 Climbing Indianapolis Center
03:44PM 39.1483 -85.1597 37° Northeast 453 521 28,200 2,220 Climbing Indianapolis Center
03:45PM 39.2458 -85.0458 42° Northeast 472 543 30,900 2,280 Climbing Indianapolis Center
03:46PM 39.3628 -84.9142 41° Northeast 469 540 33,000 1,740 Climbing Indianapolis Center
03:47PM 39.4469 -84.8164 42° Northeast 473 544 34,500 1,560 Climbing Indianapolis Center
03:48PM 39.5669 -84.6819 41° Northeast 474 545 36,300 1,200 Climbing Indianapolis Center
03:49PM 39.6575 -84.5556 47° Northeast 480 552 37,000 300 Climbing Indianapolis Center
03:50PM 39.7511 -84.4278 46° Northeast 484 557 37,000  Level Indianapolis Center
03:51PM 39.8442 -84.3022 46° Northeast 481 554 37,000  Level Indianapolis Center
03:52PM 39.9381 -84.1758 46° Northeast 483 556 37,000  Level Indianapolis Center
03:53PM 40.0322 -84.0467 46° Northeast 488 562 37,000  Level Indianapolis Center
03:54PM 40.1272 -83.9175 46° Northeast 489 563 37,000  Level Indianapolis Center
03:55PM 40.2406 -83.7617 46° Northeast 488 562 37,000  Level Indianapolis Center
03:56PM 40.3339 -83.6286 47° Northeast 491 565 37,000  Level Indianapolis Center
03:57PM 40.4283 -83.4978 46° Northeast 492 566 37,000  Level Indianapolis Center
03:58PM 40.5222 -83.3664 47° Northeast 492 566 37,000  Level Indianapolis Center
03:59PM 40.6142 -83.2336 48° Northeast 489 563 37,000  Level Indianapolis Center
04:00PM 40.7122 -83.0939 47° Northeast 487 560 37,000  Level Indianapolis Center
04:01PM 40.8053 -82.9619 47° Northeast 486 559 37,000  Level Indianapolis Center
04:02PM 40.8967 -82.8300 47° Northeast 483 556 37,000  Level Indianapolis Center
04:03PM 40.9444 -82.7656 46° Northeast 485 558 37,000  Level Cleveland Center
04:04PM 41.0519 -82.6094 48° Northeast 480 552 37,000  Level Cleveland Center
04:05PM 41.1294 -82.4978 47° Northeast 476 548 37,000  Level Cleveland Center
04:06PM 41.2364 -82.3414 48° Northeast 478 550 37,000  Level Cleveland Center
04:07PM 41.3242 -82.2117 48° Northeast 476 548 37,000  Level Cleveland Center
04:08PM 41.3897 -82.0578 60° Northeast 494 568 37,000  Level Cleveland Center
04:09PM 41.4367 -81.8878 70° East 493 567 37,000  Level Cleveland Center
04:10PM 41.4883 -81.7014 70° East 489 563 37,000  Level Cleveland Center
04:11PM 41.5356 -81.5328 69° East 487 560 37,000  Level Cleveland Center
04:12PM 41.5839 -81.3617 69° East 489 563 37,000  Level Cleveland Center
04:13PM 41.6328 -81.1925 69° East 489 563 37,000  Level Cleveland Center
04:19PM 41.9084 -80.0885 69° East 413 475 37,000  Level FlightAware ADS-B
04:20PM 41.9381 -79.9117 69° East 493 567 37,000  Level Cleveland Center
04:21PM 41.9689 -79.7317 77° East 494 568 37,000  Level Cleveland Center
04:22PM 41.9994 -79.5522 77° East 496 571 37,000  Level Cleveland Center
04:24PM 42.0297 -79.3736 77° East 490 564 37,000  Level Cleveland Center
04:25PM 42.0597 -79.1925 77° East 496 571 37,000  Level Cleveland Center
04:26PM 42.0897 -79.0114 77° East 497 572 37,000  Level Cleveland Center
04:27PM 42.1250 -78.7908 78° East 501 577 37,000  Level Cleveland Center
04:28PM 42.1547 -78.6086 78° East 499 574 37,000  Level Cleveland Center
04:29PM 42.1836 -78.4322 77° East 497 572 37,000  Level Cleveland Center
04:30PM 42.2125 -78.2494 78° East 498 573 37,000  Level Cleveland Center
04:31PM 42.2406 -78.0694 78° East 495 570 37,000  Level Cleveland Center
04:32PM 42.2756 -77.8508 78° East 499 574 37,000  Level Cleveland Center
04:33PM 42.3036 -77.6692 78° East 501 577 37,000  Level Cleveland Center
04:34PM 42.3317 -77.4872 78° East 504 580 37,000  Level Cleveland Center
04:35PM 42.3581 -77.3031 79° East 506 582 37,000 -300 Level Cleveland Center
04:36PM 42.3903 -77.0786 79° East 511 588 36,400 -780 Descending Cleveland Center
04:37PM 42.4172 -76.8919 79° East 510 587 35,400 -720 Descending Cleveland Center
04:38PM 42.4447 -76.7086 78° East 502 578 35,000 -240 Descending Cleveland Center
04:39PM 42.4719 -76.5247 79° East 502 578 35,000  Level Boston Center
04:40PM 42.4983 -76.3375 79° East 508 585 35,000 -60 Level Boston Center
04:41PM 42.5233 -76.1558 79° East 510 587 34,900 -600 Descending Boston Center
04:42PM 42.5486 -75.9714 79° East 504 580 33,800 -1,560 Descending Boston Center
04:43PM 42.5411 -75.7517 93° East 500 575 31,800 -1,740 Descending Boston Center
04:44PM 42.5147 -75.5678 101° East 498 573 30,300 -1,140 Descending Boston Center
04:45PM 42.4881 -75.3892 101° East 493 567 29,500 -840 Descending Boston Center
04:46PM 42.4669 -75.2117 99° East 486 559 28,600 -1,200 Descending Boston Center
04:47PM 42.4703 -75.0306 89° East 484 557 27,100 -1,740 Descending Boston Center
04:48PM 42.4750 -74.8567 88° East 471 542 25,100 -1,980 Descending Boston Center
04:49PM 42.4783 -74.6850 88° East 462 532 23,200 -1,620 Descending Boston Center
04:50PM 42.4817 -74.5225 88° East 440 506 21,900 -1,200 Descending Boston Center
04:51PM 42.4847 -74.3725 88° East 423 487 20,800 -1,140 Descending Boston Center
04:52PM 42.4875 -74.2206 89° East 410 472 19,700 -1,320 Descending Boston Center
04:53PM 42.4883 -74.0336 90° East 404 465 18,200 -1,140 Descending Boston Center
04:59PM 42.3227 -73.2583 90° East 343 395 11,800 -1,020 Descending FlightAware ADS-B (KSNC)
05:01PM 42.2387 -73.1112 128° Southeast 272 313 10,400 -780 Descending FlightAware ADS-B (KSNC)
05:01PM 42.1997 -73.1113 180° South 264 304 10,200 -840 Descending FlightAware ADS-B (KSNC)
05:02PM 42.1229 -73.0947 171° South 264 304 9,100 -1,500 Descending FlightAware ADS-B (KSNC)
05:04PM 42.0433 -73.0593 162° South 262 302 6,900 -1,620 Descending FlightAware ADS-B (KSNC)
05:04PM 41.9933 -73.0464 162° South 260 299 6,000 -1,020 Descending Boston Center
05:05PM 41.9653 -73.0422 174° South 245 282 5,700 -720 Descending Boston Center
05:05PM 41.9264 -73.0294 166° South 246 283 5,300 -720 Descending Boston Center
05:06PM 41.9011 -73.0072 147° Southeast 245 282 5,000 -540 Descending Boston Center
05:06PM 41.8689 -72.9806 148° Southeast 224 258 4,800 -600 Descending Boston Center
05:07PM 41.8217 -72.9461 151° Southeast 196 226 4,100 -600 Descending Boston Center
05:08PM 41.8042 -72.9317 148° Southeast 169 194 4,000 -540 Descending Boston Center
05:08PM 41.7903 -72.9022 122° Southeast 163 188 3,600 -720 Descending Boston Center
05:09PM 41.7953 -72.8792 74° East 177 204 3,300 -600 Descending Boston Center
05:09PM 41.8150 -72.8506 47° Northeast 171 197 3,000 -720 Descending Boston Center
05:10PM 41.8264 -72.8328 49° Northeast 158 182 2,600 -540 Descending Boston Center
05:10PM 41.8464 -72.8094 41° Northeast 160 184 2,500 -240 Descending Boston Center
05:11PM 41.8578 -72.7950 43° Northeast 153 176 2,400 -720 Descending Boston Center
05:11PM 41.8786 -72.7672 45° Northeast 151 174 1,800 -840 Descending Boston Center
05:12PM 41.8872 -72.7564 43° Northeast 133 153 1,600 -720 Descending Boston Center
05:13PM 41.9042 -72.7339 45° Northeast 131 151 1,100 -720 Descending Boston Center
05:13PM 41.9108 -72.7244 47° Northeast 117 135 900 -720 Descending Boston Center
05:14PM 41.9272 -72.7031 44° Northeast 119 137 400 -300 Descending Boston Center
05:15PM 41.9472 -72.6764 45° Northeast 121 139 400  Level Boston Center